Wind Cave National Park, SD

9:06 PM MST on February 07, 2016 (GMT -0700)
Hay Creek Road | | Change Station
CLOSE
Current Station
Personal Weather Station
Location: Custer, SD
Elevation: 5325 ft
Nearby Weather Stations

Elev 5325 ft 43.70 °N, 103.67 °W | Updated 5 seconds ago

Clear
Clear
23.5 °F
Feels Like 24 °F
N
1.8
Wind Variable Wind from NNW
Gusts 2.5 mph

Today
High -- | Low -- °F
--% Chance of Precip.
Yesterday
High -- | Low -- °F
Precip. -- in
Pressure 30.38 in
Visibility 10.0 miles
Clouds Clear
Windchill 24 °F
Dew Point -3 °F
Humidity 31%
Rainfall 0.00 in
Snow Depth Not available.
7:04 AM 5:13 PM
Waning Crescent, 0% visible
METAR KCUT 080353Z AUTO 31019G34KT 10SM CLR M06/M17 A3024 RMK AO2 PK WND 33036/0316 SLP288 T10561167
Pressure 30.38 in
Visibility 10.0 miles
Clouds Clear
Windchill 24 °F
Dew Point -3 °F
Humidity 31%
Rainfall 0.00 in
Snow Depth Not available.
7:04 AM 5:13 PM
Waning Crescent, 0% visible
METAR KCUT 080353Z AUTO 31019G34KT 10SM CLR M06/M17 A3024 RMK AO2 PK WND 33036/0316 SLP288 T10561167

10-Day Weather Forecast

Almanac

Astronomy

Feb. 07, 2016 Rise Set
Actual Time
Civil Twilight
Nautical Twilight
Astronomical Twilight
Moon
Length of Visible Light
Length of Day
Tomorrow will be .
, % of the Moon is Illuminated

Today's Extremes

State Highs State Lows

Community

WunderPhotos

Upload Photos

1,891,378 photos uploaded!

WunderBlog® & News

Nearby

Air Quality

  Air Quality AQ Index Pollutant
Not available.

Snow Depth

Station Depth Elevation

Earthquake Activity

City Distance Mag. Time & Date
Minimum magnitude displayed is 2.5.

Coastal Water Temperatures

Place Temperature

Stations

Nearby Weather Stations

Station Location Temp. Windchill Dew Point Humidity Wind Precip. Elev Updated Type
                   

Watches & Warnings

There are currently no watches in effect.